Deer River, New York
Current Conditions -  °F | °C
As of 4:58 AM on Monday 26 Jan 2015 (Local Time) from KGTB Reporting Station
Clear Clear  
Wind Chill: -22°   Ceiling: Unl
Heat Index: -8°   Visibility: 10mi
Dew Point: -13°   Wind: 7mph
Humidity: 77%   Direction: 100°E
Pressure: 30.06"   Gusts: NA
Location:  43.93°N, 75.59°W
Report Text: KGTB 260958Z AUTO 10006KT 10SM CLR M22/M25 A3006 RMK AO2 SLPNO T12201250
Loading
Personal Weather Stations






























Interactive Weather Map New forecast layout! Learn more

10-Day Weather Forecast

Advertisements
Track Severe Weather on mobile